sensor_id;sensor_type;location;lat;lon;timestamp;P1;durP1;ratioP1;P2;durP2;ratioP2
22780;SDS011;11557;50.884;4.322;2023-02-15T00:00:22;73.45;;;44.42;;
22780;SDS011;11557;50.884;4.322;2023-02-15T00:02:48;74.60;;;45.08;;
22780;SDS011;11557;50.884;4.322;2023-02-15T00:05:14;77.53;;;46.08;;
22780;SDS011;11557;50.884;4.322;2023-02-15T00:07:40;79.07;;;47.15;;
22780;SDS011;11557;50.884;4.322;2023-02-15T00:10:06;82.15;;;48.92;;
22780;SDS011;11557;50.884;4.322;2023-02-15T00:12:32;83.93;;;49.40;;
22780;SDS011;11557;50.884;4.322;2023-02-15T00:14:58;86.20;;;50.60;;
22780;SDS011;11557;50.884;4.322;2023-02-15T00:17:24;85.95;;;52.83;;
22780;SDS011;11557;50.884;4.322;2023-02-15T00:19:52;82.25;;;49.20;;
22780;SDS011;11557;50.884;4.322;2023-02-15T00:22:19;81.35;;;48.78;;
22780;SDS011;11557;50.884;4.322;2023-02-15T00:24:45;80.72;;;48.30;;
22780;SDS011;11557;50.884;4.322;2023-02-15T00:27:10;80.50;;;47.92;;
22780;SDS011;11557;50.884;4.322;2023-02-15T00:29:36;75.75;;;46.13;;
22780;SDS011;11557;50.884;4.322;2023-02-15T00:32:02;78.10;;;44.50;;
22780;SDS011;11557;50.884;4.322;2023-02-15T00:34:28;73.47;;;45.03;;
22780;SDS011;11557;50.884;4.322;2023-02-15T00:36:54;75.70;;;46.85;;
22780;SDS011;11557;50.884;4.322;2023-02-15T00:39:20;71.45;;;45.72;;
22780;SDS011;11557;50.884;4.322;2023-02-15T00:41:46;76.55;;;45.70;;
22780;SDS011;11557;50.884;4.322;2023-02-15T00:44:14;74.78;;;45.28;;
22780;SDS011;11557;50.884;4.322;2023-02-15T00:46:40;72.55;;;43.90;;
22780;SDS011;11557;50.884;4.322;2023-02-15T00:49:05;76.75;;;45.15;;
22780;SDS011;11557;50.884;4.322;2023-02-15T00:51:32;71.75;;;44.95;;
22780;SDS011;11557;50.884;4.322;2023-02-15T00:53:57;78.78;;;46.95;;
22780;SDS011;11557;50.884;4.322;2023-02-15T00:56:23;78.05;;;46.20;;
22780;SDS011;11557;50.884;4.322;2023-02-15T00:58:49;81.88;;;47.47;;
22780;SDS011;11557;50.884;4.322;2023-02-15T01:01:18;75.85;;;44.97;;
22780;SDS011;11557;50.884;4.322;2023-02-15T01:03:46;79.85;;;46.90;;
22780;SDS011;11557;50.884;4.322;2023-02-15T01:06:12;78.97;;;46.67;;
22780;SDS011;11557;50.884;4.322;2023-02-15T01:08:39;74.03;;;45.83;;
22780;SDS011;11557;50.884;4.322;2023-02-15T01:11:14;68.57;;;44.38;;
22780;SDS011;11557;50.884;4.322;2023-02-15T01:13:47;76.53;;;46.47;;
22780;SDS011;11557;50.884;4.322;2023-02-15T01:16:14;75.30;;;47.42;;
22780;SDS011;11557;50.884;4.322;2023-02-15T01:18:40;72.57;;;45.58;;
22780;SDS011;11557;50.884;4.322;2023-02-15T01:21:10;77.75;;;45.85;;
22780;SDS011;11557;50.884;4.322;2023-02-15T01:23:39;74.57;;;44.42;;
22780;SDS011;11557;50.884;4.322;2023-02-15T01:26:05;73.40;;;45.03;;
22780;SDS011;11557;50.884;4.322;2023-02-15T01:28:31;73.85;;;45.78;;
22780;SDS011;11557;50.884;4.322;2023-02-15T01:30:58;72.85;;;43.47;;
22780;SDS011;11557;50.884;4.322;2023-02-15T01:33:24;76.45;;;43.20;;
22780;SDS011;11557;50.884;4.322;2023-02-15T01:35:59;75.38;;;43.08;;
22780;SDS011;11557;50.884;4.322;2023-02-15T01:38:24;72.72;;;43.30;;
22780;SDS011;11557;50.884;4.322;2023-02-15T01:40:51;73.65;;;43.55;;
22780;SDS011;11557;50.884;4.322;2023-02-15T01:43:17;66.93;;;41.60;;
22780;SDS011;11557;50.884;4.322;2023-02-15T01:45:43;68.13;;;42.20;;
22780;SDS011;11557;50.884;4.322;2023-02-15T01:48:20;66.07;;;41.55;;
22780;SDS011;11557;50.884;4.322;2023-02-15T01:50:54;67.97;;;41.78;;
22780;SDS011;11557;50.884;4.322;2023-02-15T01:53:30;63.60;;;40.95;;
22780;SDS011;11557;50.884;4.322;2023-02-15T01:56:09;67.07;;;41.42;;
22780;SDS011;11557;50.884;4.322;2023-02-15T01:58:39;70.95;;;41.65;;
22780;SDS011;11557;50.884;4.322;2023-02-15T02:01:06;69.07;;;40.40;;
22780;SDS011;11557;50.884;4.322;2023-02-15T02:06:14;70.10;;;41.60;;
22780;SDS011;11557;50.884;4.322;2023-02-15T02:08:40;70.20;;;42.85;;
22780;SDS011;11557;50.884;4.322;2023-02-15T02:11:10;70.05;;;41.65;;
22780;SDS011;11557;50.884;4.322;2023-02-15T02:13:37;66.43;;;42.17;;
22780;SDS011;11557;50.884;4.322;2023-02-15T02:21:11;68.95;;;42.00;;
22780;SDS011;11557;50.884;4.322;2023-02-15T02:26:49;68.97;;;41.80;;
22780;SDS011;11557;50.884;4.322;2023-02-15T02:46:05;63.05;;;41.47;;
22780;SDS011;11557;50.884;4.322;2023-02-15T02:48:38;69.55;;;40.67;;
22780;SDS011;11557;50.884;4.322;2023-02-15T02:51:04;66.60;;;40.53;;
22780;SDS011;11557;50.884;4.322;2023-02-15T02:53:30;63.67;;;41.65;;
22780;SDS011;11557;50.884;4.322;2023-02-15T02:56:40;65.40;;;41.65;;
22780;SDS011;11557;50.884;4.322;2023-02-15T02:59:01;69.22;;;41.45;;
22780;SDS011;11557;50.884;4.322;2023-02-15T03:01:34;70.03;;;41.60;;
22780;SDS011;11557;50.884;4.322;2023-02-15T03:04:33;66.55;;;41.53;;
22780;SDS011;11557;50.884;4.322;2023-02-15T03:07:04;67.05;;;40.45;;
22780;SDS011;11557;50.884;4.322;2023-02-15T03:09:39;61.95;;;39.22;;
22780;SDS011;11557;50.884;4.322;2023-02-15T03:12:22;67.95;;;40.15;;
22780;SDS011;11557;50.884;4.322;2023-02-15T03:14:55;64.10;;;39.90;;
22780;SDS011;11557;50.884;4.322;2023-02-15T03:17:27;63.30;;;39.92;;
22780;SDS011;11557;50.884;4.322;2023-02-15T03:19:57;64.90;;;41.15;;
22780;SDS011;11557;50.884;4.322;2023-02-15T03:22:28;65.47;;;40.92;;
22780;SDS011;11557;50.884;4.322;2023-02-15T03:27:47;62.40;;;39.00;;
22780;SDS011;11557;50.884;4.322;2023-02-15T03:30:19;61.15;;;38.88;;
22780;SDS011;11557;50.884;4.322;2023-02-15T03:32:47;64.72;;;40.05;;
22780;SDS011;11557;50.884;4.322;2023-02-15T03:35:15;64.43;;;40.33;;
22780;SDS011;11557;50.884;4.322;2023-02-15T03:37:48;59.85;;;39.40;;
22780;SDS011;11557;50.884;4.322;2023-02-15T03:40:43;64.75;;;39.28;;
22780;SDS011;11557;50.884;4.322;2023-02-15T03:46:07;62.78;;;38.67;;
22780;SDS011;11557;50.884;4.322;2023-02-15T03:48:53;64.72;;;39.53;;
22780;SDS011;11557;50.884;4.322;2023-02-15T03:51:27;62.50;;;37.63;;
22780;SDS011;11557;50.884;4.322;2023-02-15T03:53:59;66.47;;;40.80;;
22780;SDS011;11557;50.884;4.322;2023-02-15T03:56:30;64.32;;;40.10;;
22780;SDS011;11557;50.884;4.322;2023-02-15T03:58:58;63.38;;;39.45;;
22780;SDS011;11557;50.884;4.322;2023-02-15T04:04:35;65.65;;;38.80;;
22780;SDS011;11557;50.884;4.322;2023-02-15T04:07:03;61.85;;;39.05;;
22780;SDS011;11557;50.884;4.322;2023-02-15T04:09:30;58.33;;;38.20;;
22780;SDS011;11557;50.884;4.322;2023-02-15T04:12:14;63.05;;;38.78;;
22780;SDS011;11557;50.884;4.322;2023-02-15T04:14:40;66.03;;;41.35;;
22780;SDS011;11557;50.884;4.322;2023-02-15T04:17:24;66.33;;;38.77;;
22780;SDS011;11557;50.884;4.322;2023-02-15T04:19:50;64.55;;;38.25;;
22780;SDS011;11557;50.884;4.322;2023-02-15T04:22:34;64.53;;;40.23;;
22780;SDS011;11557;50.884;4.322;2023-02-15T04:25:18;61.73;;;37.77;;
22780;SDS011;11557;50.884;4.322;2023-02-15T04:27:46;64.32;;;39.30;;
22780;SDS011;11557;50.884;4.322;2023-02-15T04:30:14;59.85;;;37.45;;
22780;SDS011;11557;50.884;4.322;2023-02-15T04:32:41;57.80;;;38.45;;
22780;SDS011;11557;50.884;4.322;2023-02-15T04:35:07;61.33;;;39.55;;
22780;SDS011;11557;50.884;4.322;2023-02-15T04:37:34;62.92;;;39.30;;
22780;SDS011;11557;50.884;4.322;2023-02-15T04:40:02;58.65;;;37.22;;
22780;SDS011;11557;50.884;4.322;2023-02-15T04:42:28;63.75;;;38.45;;
22780;SDS011;11557;50.884;4.322;2023-02-15T04:44:54;65.57;;;39.97;;
22780;SDS011;11557;50.884;4.322;2023-02-15T04:47:20;61.60;;;39.00;;
22780;SDS011;11557;50.884;4.322;2023-02-15T04:49:46;65.13;;;39.50;;
22780;SDS011;11557;50.884;4.322;2023-02-15T04:52:11;66.75;;;39.15;;
22780;SDS011;11557;50.884;4.322;2023-02-15T04:54:37;68.32;;;39.75;;
22780;SDS011;11557;50.884;4.322;2023-02-15T04:57:03;63.85;;;39.13;;
22780;SDS011;11557;50.884;4.322;2023-02-15T04:59:30;63.45;;;39.83;;
22780;SDS011;11557;50.884;4.322;2023-02-15T05:01:56;65.03;;;40.25;;
22780;SDS011;11557;50.884;4.322;2023-02-15T05:04:22;63.88;;;39.30;;
22780;SDS011;11557;50.884;4.322;2023-02-15T05:06:47;64.22;;;40.08;;
22780;SDS011;11557;50.884;4.322;2023-02-15T05:09:14;65.07;;;39.80;;
22780;SDS011;11557;50.884;4.322;2023-02-15T05:11:40;64.68;;;39.92;;
22780;SDS011;11557;50.884;4.322;2023-02-15T05:14:06;66.05;;;40.80;;
22780;SDS011;11557;50.884;4.322;2023-02-15T05:16:32;62.33;;;38.80;;
22780;SDS011;11557;50.884;4.322;2023-02-15T05:18:57;69.38;;;40.10;;
22780;SDS011;11557;50.884;4.322;2023-02-15T05:21:23;65.35;;;39.40;;
22780;SDS011;11557;50.884;4.322;2023-02-15T05:23:49;67.18;;;39.58;;
22780;SDS011;11557;50.884;4.322;2023-02-15T05:26:16;66.10;;;39.15;;
22780;SDS011;11557;50.884;4.322;2023-02-15T05:29:02;63.75;;;39.65;;
22780;SDS011;11557;50.884;4.322;2023-02-15T05:31:30;71.53;;;41.80;;
22780;SDS011;11557;50.884;4.322;2023-02-15T05:33:56;63.47;;;38.80;;
22780;SDS011;11557;50.884;4.322;2023-02-15T05:36:22;66.43;;;39.67;;
22780;SDS011;11557;50.884;4.322;2023-02-15T05:38:48;63.88;;;40.92;;
22780;SDS011;11557;50.884;4.322;2023-02-15T05:41:14;64.28;;;40.72;;
22780;SDS011;11557;50.884;4.322;2023-02-15T05:43:40;70.95;;;41.58;;
22780;SDS011;11557;50.884;4.322;2023-02-15T05:46:06;67.18;;;41.25;;
22780;SDS011;11557;50.884;4.322;2023-02-15T05:48:32;66.68;;;40.78;;
22780;SDS011;11557;50.884;4.322;2023-02-15T05:51:04;65.13;;;39.88;;
22780;SDS011;11557;50.884;4.322;2023-02-15T05:53:32;64.15;;;40.10;;
22780;SDS011;11557;50.884;4.322;2023-02-15T05:56:00;67.90;;;40.72;;
22780;SDS011;11557;50.884;4.322;2023-02-15T05:58:28;64.28;;;40.63;;
22780;SDS011;11557;50.884;4.322;2023-02-15T06:00:55;65.40;;;40.20;;
22780;SDS011;11557;50.884;4.322;2023-02-15T06:03:21;58.22;;;38.15;;
22780;SDS011;11557;50.884;4.322;2023-02-15T06:05:48;64.45;;;40.45;;
22780;SDS011;11557;50.884;4.322;2023-02-15T06:08:14;66.18;;;40.33;;
22780;SDS011;11557;50.884;4.322;2023-02-15T06:10:40;68.10;;;39.17;;
22780;SDS011;11557;50.884;4.322;2023-02-15T06:13:06;65.68;;;41.00;;
22780;SDS011;11557;50.884;4.322;2023-02-15T06:15:32;65.97;;;39.40;;
22780;SDS011;11557;50.884;4.322;2023-02-15T06:17:58;61.00;;;39.58;;
22780;SDS011;11557;50.884;4.322;2023-02-15T06:20:24;68.78;;;39.63;;
22780;SDS011;11557;50.884;4.322;2023-02-15T06:22:49;66.47;;;40.08;;
22780;SDS011;11557;50.884;4.322;2023-02-15T06:25:15;62.00;;;38.88;;
22780;SDS011;11557;50.884;4.322;2023-02-15T06:27:41;70.63;;;40.25;;
22780;SDS011;11557;50.884;4.322;2023-02-15T06:30:08;69.07;;;40.28;;
22780;SDS011;11557;50.884;4.322;2023-02-15T06:32:35;60.40;;;38.63;;
22780;SDS011;11557;50.884;4.322;2023-02-15T06:35:01;71.28;;;39.42;;
22780;SDS011;11557;50.884;4.322;2023-02-15T06:37:26;64.25;;;40.00;;
22780;SDS011;11557;50.884;4.322;2023-02-15T06:39:52;64.72;;;39.50;;
22780;SDS011;11557;50.884;4.322;2023-02-15T06:42:18;67.05;;;40.17;;
22780;SDS011;11557;50.884;4.322;2023-02-15T06:44:44;64.93;;;40.10;;
22780;SDS011;11557;50.884;4.322;2023-02-15T06:47:10;65.72;;;39.85;;
22780;SDS011;11557;50.884;4.322;2023-02-15T06:49:36;68.35;;;39.72;;
22780;SDS011;11557;50.884;4.322;2023-02-15T06:52:02;60.72;;;39.95;;
22780;SDS011;11557;50.884;4.322;2023-02-15T06:54:41;63.35;;;40.25;;
22780;SDS011;11557;50.884;4.322;2023-02-15T06:57:07;65.80;;;40.65;;
22780;SDS011;11557;50.884;4.322;2023-02-15T06:59:34;67.20;;;40.95;;
22780;SDS011;11557;50.884;4.322;2023-02-15T07:02:00;63.88;;;40.15;;
22780;SDS011;11557;50.884;4.322;2023-02-15T07:04:25;67.38;;;41.67;;
22780;SDS011;11557;50.884;4.322;2023-02-15T07:06:53;66.03;;;40.20;;
22780;SDS011;11557;50.884;4.322;2023-02-15T07:09:19;65.32;;;41.13;;
22780;SDS011;11557;50.884;4.322;2023-02-15T07:11:44;64.55;;;40.05;;
22780;SDS011;11557;50.884;4.322;2023-02-15T07:14:29;68.20;;;41.80;;
22780;SDS011;11557;50.884;4.322;2023-02-15T07:16:55;64.57;;;39.33;;
22780;SDS011;11557;50.884;4.322;2023-02-15T07:19:21;64.03;;;40.17;;
22780;SDS011;11557;50.884;4.322;2023-02-15T07:21:47;61.70;;;38.95;;
22780;SDS011;11557;50.884;4.322;2023-02-15T07:24:13;62.13;;;39.78;;
22780;SDS011;11557;50.884;4.322;2023-02-15T07:26:39;66.57;;;37.92;;
22780;SDS011;11557;50.884;4.322;2023-02-15T07:29:05;63.38;;;39.83;;
22780;SDS011;11557;50.884;4.322;2023-02-15T07:31:30;64.88;;;39.47;;
22780;SDS011;11557;50.884;4.322;2023-02-15T07:33:56;67.20;;;39.47;;
22780;SDS011;11557;50.884;4.322;2023-02-15T07:36:22;63.10;;;38.63;;
22780;SDS011;11557;50.884;4.322;2023-02-15T07:38:47;60.15;;;38.35;;
22780;SDS011;11557;50.884;4.322;2023-02-15T07:41:15;64.35;;;40.80;;
22780;SDS011;11557;50.884;4.322;2023-02-15T07:43:42;61.10;;;36.90;;
22780;SDS011;11557;50.884;4.322;2023-02-15T07:46:10;63.47;;;39.22;;
22780;SDS011;11557;50.884;4.322;2023-02-15T07:48:38;63.92;;;38.45;;
22780;SDS011;11557;50.884;4.322;2023-02-15T07:51:05;60.13;;;38.15;;
22780;SDS011;11557;50.884;4.322;2023-02-15T07:53:35;64.70;;;38.13;;
22780;SDS011;11557;50.884;4.322;2023-02-15T07:56:05;59.20;;;38.05;;
22780;SDS011;11557;50.884;4.322;2023-02-15T07:58:34;62.53;;;37.45;;
22780;SDS011;11557;50.884;4.322;2023-02-15T08:03:53;58.90;;;37.65;;
22780;SDS011;11557;50.884;4.322;2023-02-15T08:06:19;60.92;;;39.47;;
22780;SDS011;11557;50.884;4.322;2023-02-15T08:08:46;59.03;;;38.33;;
22780;SDS011;11557;50.884;4.322;2023-02-15T08:16:39;61.50;;;37.80;;
22780;SDS011;11557;50.884;4.322;2023-02-15T08:21:39;66.93;;;39.47;;
22780;SDS011;11557;50.884;4.322;2023-02-15T08:24:07;60.97;;;39.13;;
22780;SDS011;11557;50.884;4.322;2023-02-15T08:26:34;57.33;;;38.05;;
22780;SDS011;11557;50.884;4.322;2023-02-15T08:29:01;64.00;;;38.85;;
22780;SDS011;11557;50.884;4.322;2023-02-15T08:31:27;62.15;;;39.03;;
22780;SDS011;11557;50.884;4.322;2023-02-15T08:33:54;68.22;;;41.50;;
22780;SDS011;11557;50.884;4.322;2023-02-15T08:36:23;59.95;;;37.85;;
22780;SDS011;11557;50.884;4.322;2023-02-15T08:38:50;60.05;;;38.55;;
22780;SDS011;11557;50.884;4.322;2023-02-15T08:43:45;62.60;;;39.42;;
22780;SDS011;11557;50.884;4.322;2023-02-15T08:46:13;58.42;;;38.05;;
22780;SDS011;11557;50.884;4.322;2023-02-15T08:48:40;63.97;;;40.35;;
22780;SDS011;11557;50.884;4.322;2023-02-15T08:51:13;58.40;;;38.17;;
22780;SDS011;11557;50.884;4.322;2023-02-15T08:53:41;59.05;;;36.60;;
22780;SDS011;11557;50.884;4.322;2023-02-15T08:56:10;56.80;;;37.92;;
22780;SDS011;11557;50.884;4.322;2023-02-15T08:58:37;65.13;;;39.63;;
22780;SDS011;11557;50.884;4.322;2023-02-15T09:01:16;65.88;;;38.90;;
22780;SDS011;11557;50.884;4.322;2023-02-15T09:03:45;61.47;;;37.83;;
22780;SDS011;11557;50.884;4.322;2023-02-15T09:06:13;62.67;;;38.50;;
22780;SDS011;11557;50.884;4.322;2023-02-15T09:08:39;66.30;;;38.55;;
22780;SDS011;11557;50.884;4.322;2023-02-15T09:11:12;62.47;;;38.15;;
22780;SDS011;11557;50.884;4.322;2023-02-15T09:13:47;63.65;;;35.58;;
22780;SDS011;11557;50.884;4.322;2023-02-15T09:16:14;62.90;;;36.55;;
22780;SDS011;11557;50.884;4.322;2023-02-15T09:18:42;57.63;;;35.58;;
22780;SDS011;11557;50.884;4.322;2023-02-15T09:21:12;54.72;;;35.15;;
22780;SDS011;11557;50.884;4.322;2023-02-15T09:23:42;56.28;;;33.70;;
22780;SDS011;11557;50.884;4.322;2023-02-15T09:26:10;56.45;;;33.38;;
22780;SDS011;11557;50.884;4.322;2023-02-15T09:28:38;55.67;;;33.08;;
22780;SDS011;11557;50.884;4.322;2023-02-15T09:31:05;46.97;;;31.50;;
22780;SDS011;11557;50.884;4.322;2023-02-15T09:33:36;54.58;;;31.00;;
22780;SDS011;11557;50.884;4.322;2023-02-15T09:36:03;55.63;;;31.30;;
22780;SDS011;11557;50.884;4.322;2023-02-15T09:38:30;48.83;;;29.95;;
22780;SDS011;11557;50.884;4.322;2023-02-15T09:41:05;49.05;;;29.38;;
22780;SDS011;11557;50.884;4.322;2023-02-15T09:46:45;44.17;;;27.00;;
22780;SDS011;11557;50.884;4.322;2023-02-15T09:54:54;44.88;;;27.55;;
22780;SDS011;11557;50.884;4.322;2023-02-15T09:58:15;44.97;;;27.98;;
22780;SDS011;11557;50.884;4.322;2023-02-15T10:00:47;40.55;;;27.15;;
22780;SDS011;11557;50.884;4.322;2023-02-15T10:19:27;43.58;;;26.85;;
22780;SDS011;11557;50.884;4.322;2023-02-15T10:27:21;39.35;;;26.35;;
22780;SDS011;11557;50.884;4.322;2023-02-15T10:30:33;39.30;;;25.95;;
22780;SDS011;11557;50.884;4.322;2023-02-15T10:32:37;39.42;;;27.05;;
22780;SDS011;11557;50.884;4.322;2023-02-15T10:38:33;40.53;;;26.83;;
22780;SDS011;11557;50.884;4.322;2023-02-15T10:41:28;38.72;;;26.25;;
22780;SDS011;11557;50.884;4.322;2023-02-15T10:44:24;38.90;;;25.83;;
22780;SDS011;11557;50.884;4.322;2023-02-15T10:47:08;44.35;;;26.40;;
22780;SDS011;11557;50.884;4.322;2023-02-15T11:00:49;41.72;;;26.63;;
22780;SDS011;11557;50.884;4.322;2023-02-15T11:06:13;49.20;;;27.98;;
22780;SDS011;11557;50.884;4.322;2023-02-15T11:08:46;40.08;;;27.55;;
22780;SDS011;11557;50.884;4.322;2023-02-15T11:11:23;47.00;;;27.63;;
22780;SDS011;11557;50.884;4.322;2023-02-15T11:14:14;41.42;;;25.92;;
22780;SDS011;11557;50.884;4.322;2023-02-15T11:16:57;41.05;;;27.33;;
22780;SDS011;11557;50.884;4.322;2023-02-15T11:19:32;43.97;;;27.05;;
22780;SDS011;11557;50.884;4.322;2023-02-15T11:22:02;39.33;;;26.55;;
22780;SDS011;11557;50.884;4.322;2023-02-15T11:24:30;41.90;;;27.48;;
22780;SDS011;11557;50.884;4.322;2023-02-15T11:27:04;39.97;;;26.77;;
22780;SDS011;11557;50.884;4.322;2023-02-15T11:32:34;47.83;;;28.90;;
22780;SDS011;11557;50.884;4.322;2023-02-15T11:41:01;43.72;;;29.55;;
22780;SDS011;11557;50.884;4.322;2023-02-15T11:46:33;51.13;;;31.15;;
22780;SDS011;11557;50.884;4.322;2023-02-15T11:48:59;49.42;;;31.48;;
22780;SDS011;11557;50.884;4.322;2023-02-15T11:51:25;48.40;;;30.70;;
22780;SDS011;11557;50.884;4.322;2023-02-15T11:53:52;47.25;;;31.83;;
22780;SDS011;11557;50.884;4.322;2023-02-15T11:56:20;46.33;;;32.03;;
22780;SDS011;11557;50.884;4.322;2023-02-15T11:59:03;49.08;;;30.75;;
22780;SDS011;11557;50.884;4.322;2023-02-15T12:01:41;49.17;;;32.60;;
22780;SDS011;11557;50.884;4.322;2023-02-15T12:04:14;50.25;;;32.20;;
22780;SDS011;11557;50.884;4.322;2023-02-15T12:06:55;48.70;;;32.00;;
22780;SDS011;11557;50.884;4.322;2023-02-15T12:09:48;51.10;;;33.92;;
22780;SDS011;11557;50.884;4.322;2023-02-15T12:12:37;56.53;;;33.03;;
22780;SDS011;11557;50.884;4.322;2023-02-15T12:15:06;53.22;;;33.63;;
22780;SDS011;11557;50.884;4.322;2023-02-15T12:17:53;52.10;;;32.88;;
22780;SDS011;11557;50.884;4.322;2023-02-15T12:22:50;56.95;;;33.65;;
22780;SDS011;11557;50.884;4.322;2023-02-15T12:27:49;53.25;;;32.13;;
22780;SDS011;11557;50.884;4.322;2023-02-15T12:33:02;51.97;;;32.92;;
22780;SDS011;11557;50.884;4.322;2023-02-15T12:35:39;49.63;;;33.25;;
22780;SDS011;11557;50.884;4.322;2023-02-15T12:38:26;53.63;;;34.08;;
22780;SDS011;11557;50.884;4.322;2023-02-15T12:40:58;52.42;;;32.92;;
22780;SDS011;11557;50.884;4.322;2023-02-15T12:43:37;49.35;;;33.15;;
22780;SDS011;11557;50.884;4.322;2023-02-15T12:46:22;52.88;;;34.17;;
22780;SDS011;11557;50.884;4.322;2023-02-15T12:49:36;54.60;;;33.25;;
22780;SDS011;11557;50.884;4.322;2023-02-15T12:51:48;55.33;;;34.83;;
22780;SDS011;11557;50.884;4.322;2023-02-15T12:54:28;52.88;;;34.00;;
22780;SDS011;11557;50.884;4.322;2023-02-15T12:59:48;55.95;;;35.20;;
22780;SDS011;11557;50.884;4.322;2023-02-15T13:02:18;53.35;;;33.55;;
22780;SDS011;11557;50.884;4.322;2023-02-15T13:05:10;52.50;;;36.00;;
22780;SDS011;11557;50.884;4.322;2023-02-15T13:07:50;57.38;;;35.30;;
22780;SDS011;11557;50.884;4.322;2023-02-15T13:10:26;60.30;;;34.17;;
22780;SDS011;11557;50.884;4.322;2023-02-15T13:13:18;52.80;;;33.25;;
22780;SDS011;11557;50.884;4.322;2023-02-15T13:15:48;53.80;;;35.45;;
22780;SDS011;11557;50.884;4.322;2023-02-15T13:18:17;52.63;;;33.53;;
22780;SDS011;11557;50.884;4.322;2023-02-15T13:21:18;52.55;;;34.45;;
22780;SDS011;11557;50.884;4.322;2023-02-15T13:23:47;55.58;;;35.17;;
22780;SDS011;11557;50.884;4.322;2023-02-15T13:26:16;52.67;;;35.53;;
22780;SDS011;11557;50.884;4.322;2023-02-15T13:28:46;55.50;;;33.97;;
22780;SDS011;11557;50.884;4.322;2023-02-15T13:31:19;50.55;;;32.78;;
22780;SDS011;11557;50.884;4.322;2023-02-15T13:33:52;53.38;;;35.03;;
22780;SDS011;11557;50.884;4.322;2023-02-15T13:42:05;52.45;;;34.80;;
22780;SDS011;11557;50.884;4.322;2023-02-15T13:47:42;54.85;;;35.65;;
22780;SDS011;11557;50.884;4.322;2023-02-15T14:07:43;55.65;;;36.67;;
22780;SDS011;11557;50.884;4.322;2023-02-15T14:10:25;57.83;;;37.58;;
22780;SDS011;11557;50.884;4.322;2023-02-15T14:13:11;55.22;;;35.53;;
22780;SDS011;11557;50.884;4.322;2023-02-15T14:16:01;54.45;;;35.85;;
22780;SDS011;11557;50.884;4.322;2023-02-15T14:21:29;52.47;;;35.88;;
22780;SDS011;11557;50.884;4.322;2023-02-15T14:24:05;52.70;;;34.92;;
22780;SDS011;11557;50.884;4.322;2023-02-15T14:26:47;56.40;;;37.45;;
22780;SDS011;11557;50.884;4.322;2023-02-15T14:32:40;58.03;;;36.92;;
22780;SDS011;11557;50.884;4.322;2023-02-15T14:35:17;59.17;;;37.15;;
22780;SDS011;11557;50.884;4.322;2023-02-15T14:40:49;57.53;;;38.00;;
22780;SDS011;11557;50.884;4.322;2023-02-15T14:57:32;56.42;;;35.38;;
22780;SDS011;11557;50.884;4.322;2023-02-15T15:02:29;58.78;;;37.15;;
22780;SDS011;11557;50.884;4.322;2023-02-15T15:05:19;56.97;;;38.00;;
22780;SDS011;11557;50.884;4.322;2023-02-15T15:07:53;62.65;;;38.42;;
22780;SDS011;11557;50.884;4.322;2023-02-15T15:12:47;59.20;;;39.00;;
22780;SDS011;11557;50.884;4.322;2023-02-15T15:17:55;58.90;;;38.30;;
22780;SDS011;11557;50.884;4.322;2023-02-15T15:20:38;59.88;;;37.80;;
22780;SDS011;11557;50.884;4.322;2023-02-15T15:25:47;58.78;;;39.45;;
22780;SDS011;11557;50.884;4.322;2023-02-15T15:50:29;57.80;;;38.38;;
22780;SDS011;11557;50.884;4.322;2023-02-15T15:52:57;61.13;;;39.65;;
22780;SDS011;11557;50.884;4.322;2023-02-15T15:55:25;58.40;;;39.10;;
22780;SDS011;11557;50.884;4.322;2023-02-15T15:57:59;59.83;;;39.88;;
22780;SDS011;11557;50.884;4.322;2023-02-15T16:00:33;65.38;;;39.78;;
22780;SDS011;11557;50.884;4.322;2023-02-15T16:03:03;60.75;;;40.30;;
22780;SDS011;11557;50.884;4.322;2023-02-15T16:05:38;58.35;;;39.38;;
22780;SDS011;11557;50.884;4.322;2023-02-15T16:08:04;57.65;;;38.22;;
22780;SDS011;11557;50.884;4.322;2023-02-15T16:10:31;60.05;;;38.58;;
22780;SDS011;11557;50.884;4.322;2023-02-15T16:12:58;59.47;;;40.13;;
22780;SDS011;11557;50.884;4.322;2023-02-15T16:18:24;58.63;;;38.90;;
22780;SDS011;11557;50.884;4.322;2023-02-15T16:20:53;62.08;;;39.60;;
22780;SDS011;11557;50.884;4.322;2023-02-15T16:29:16;59.90;;;36.10;;
22780;SDS011;11557;50.884;4.322;2023-02-15T16:31:43;55.08;;;36.17;;
22780;SDS011;11557;50.884;4.322;2023-02-15T16:34:21;55.42;;;34.20;;
22780;SDS011;11557;50.884;4.322;2023-02-15T16:36:47;54.95;;;34.47;;
22780;SDS011;11557;50.884;4.322;2023-02-15T16:39:17;54.75;;;34.40;;
22780;SDS011;11557;50.884;4.322;2023-02-15T16:41:44;51.35;;;33.97;;
22780;SDS011;11557;50.884;4.322;2023-02-15T16:44:16;50.67;;;33.78;;
22780;SDS011;11557;50.884;4.322;2023-02-15T16:46:45;54.80;;;33.67;;
22780;SDS011;11557;50.884;4.322;2023-02-15T16:49:16;52.47;;;34.20;;
22780;SDS011;11557;50.884;4.322;2023-02-15T16:51:44;52.35;;;32.10;;
22780;SDS011;11557;50.884;4.322;2023-02-15T16:54:19;49.47;;;33.10;;
22780;SDS011;11557;50.884;4.322;2023-02-15T16:56:47;57.92;;;35.17;;
22780;SDS011;11557;50.884;4.322;2023-02-15T17:02:00;49.72;;;32.65;;
22780;SDS011;11557;50.884;4.322;2023-02-15T17:04:30;51.97;;;34.05;;
22780;SDS011;11557;50.884;4.322;2023-02-15T17:07:04;55.97;;;35.47;;
22780;SDS011;11557;50.884;4.322;2023-02-15T17:09:30;53.95;;;35.13;;
22780;SDS011;11557;50.884;4.322;2023-02-15T17:11:57;58.35;;;37.13;;
22780;SDS011;11557;50.884;4.322;2023-02-15T17:14:31;55.17;;;35.88;;
22780;SDS011;11557;50.884;4.322;2023-02-15T17:17:05;57.67;;;36.63;;
22780;SDS011;11557;50.884;4.322;2023-02-15T17:19:49;54.38;;;36.47;;
22780;SDS011;11557;50.884;4.322;2023-02-15T17:22:24;54.42;;;37.28;;
22780;SDS011;11557;50.884;4.322;2023-02-15T17:24:59;59.50;;;39.08;;
22780;SDS011;11557;50.884;4.322;2023-02-15T17:27:29;61.40;;;38.50;;
22780;SDS011;11557;50.884;4.322;2023-02-15T17:30:01;66.95;;;42.05;;
22780;SDS011;11557;50.884;4.322;2023-02-15T17:32:37;66.75;;;41.08;;
22780;SDS011;11557;50.884;4.322;2023-02-15T17:37:48;68.93;;;44.33;;
22780;SDS011;11557;50.884;4.322;2023-02-15T17:40:22;72.45;;;44.05;;
22780;SDS011;11557;50.884;4.322;2023-02-15T17:42:53;72.90;;;43.80;;
22780;SDS011;11557;50.884;4.322;2023-02-15T17:45:20;76.82;;;45.42;;
22780;SDS011;11557;50.884;4.322;2023-02-15T17:47:47;71.15;;;44.35;;
22780;SDS011;11557;50.884;4.322;2023-02-15T17:50:23;75.18;;;45.50;;
22780;SDS011;11557;50.884;4.322;2023-02-15T17:52:51;66.47;;;42.67;;
22780;SDS011;11557;50.884;4.322;2023-02-15T17:55:19;70.07;;;45.67;;
22780;SDS011;11557;50.884;4.322;2023-02-15T17:58:14;70.30;;;44.30;;
22780;SDS011;11557;50.884;4.322;2023-02-15T18:00:48;74.28;;;45.10;;
22780;SDS011;11557;50.884;4.322;2023-02-15T18:06:27;73.90;;;48.67;;
22780;SDS011;11557;50.884;4.322;2023-02-15T18:09:15;69.15;;;44.72;;
22780;SDS011;11557;50.884;4.322;2023-02-15T18:12:00;76.10;;;47.05;;
22780;SDS011;11557;50.884;4.322;2023-02-15T18:14:26;73.07;;;44.55;;
22780;SDS011;11557;50.884;4.322;2023-02-15T18:16:52;75.57;;;46.13;;
22780;SDS011;11557;50.884;4.322;2023-02-15T18:19:22;73.50;;;46.75;;
22780;SDS011;11557;50.884;4.322;2023-02-15T18:21:50;72.32;;;46.03;;